sensor_id;sensor_type;location;lat;lon;timestamp;P1;durP1;ratioP1;P2;durP2;ratioP2
16075;SDS011;8142;48.242;11.644;2023-02-03T00:00:58;5.87;;;2.33;;
16075;SDS011;8142;48.242;11.644;2023-02-03T00:03:24;4.40;;;2.30;;
16075;SDS011;8142;48.242;11.644;2023-02-03T00:05:50;2.57;;;1.90;;
16075;SDS011;8142;48.242;11.644;2023-02-03T00:08:16;3.40;;;2.00;;
16075;SDS011;8142;48.242;11.644;2023-02-03T00:10:44;4.73;;;2.20;;
16075;SDS011;8142;48.242;11.644;2023-02-03T00:13:10;3.87;;;1.80;;
16075;SDS011;8142;48.242;11.644;2023-02-03T00:15:36;4.23;;;2.00;;
16075;SDS011;8142;48.242;11.644;2023-02-03T00:18:02;7.90;;;2.10;;
16075;SDS011;8142;48.242;11.644;2023-02-03T00:20:28;5.67;;;2.40;;
16075;SDS011;8142;48.242;11.644;2023-02-03T00:23:01;3.63;;;1.90;;
16075;SDS011;8142;48.242;11.644;2023-02-03T00:25:31;5.63;;;2.00;;
16075;SDS011;8142;48.242;11.644;2023-02-03T00:27:57;6.73;;;2.10;;
16075;SDS011;8142;48.242;11.644;2023-02-03T00:30:23;4.63;;;1.90;;
16075;SDS011;8142;48.242;11.644;2023-02-03T00:32:49;3.77;;;1.80;;
16075;SDS011;8142;48.242;11.644;2023-02-03T00:35:15;4.47;;;1.93;;
16075;SDS011;8142;48.242;11.644;2023-02-03T00:37:40;4.30;;;1.90;;
16075;SDS011;8142;48.242;11.644;2023-02-03T00:40:06;3.60;;;1.90;;
16075;SDS011;8142;48.242;11.644;2023-02-03T00:42:33;3.37;;;1.60;;
16075;SDS011;8142;48.242;11.644;2023-02-03T00:45:00;3.63;;;1.80;;
16075;SDS011;8142;48.242;11.644;2023-02-03T00:47:26;5.03;;;1.90;;
16075;SDS011;8142;48.242;11.644;2023-02-03T00:49:52;6.43;;;2.17;;
16075;SDS011;8142;48.242;11.644;2023-02-03T00:52:18;3.30;;;1.90;;
16075;SDS011;8142;48.242;11.644;2023-02-03T00:54:43;4.57;;;1.73;;
16075;SDS011;8142;48.242;11.644;2023-02-03T00:57:09;4.10;;;1.80;;
16075;SDS011;8142;48.242;11.644;2023-02-03T00:59:35;4.83;;;1.50;;
16075;SDS011;8142;48.242;11.644;2023-02-03T01:02:01;3.30;;;1.73;;
16075;SDS011;8142;48.242;11.644;2023-02-03T01:04:27;3.13;;;1.83;;
16075;SDS011;8142;48.242;11.644;2023-02-03T01:06:53;2.93;;;1.53;;
16075;SDS011;8142;48.242;11.644;2023-02-03T01:09:22;4.17;;;1.60;;
16075;SDS011;8142;48.242;11.644;2023-02-03T01:11:48;4.37;;;1.80;;
16075;SDS011;8142;48.242;11.644;2023-02-03T01:14:14;5.00;;;1.83;;
16075;SDS011;8142;48.242;11.644;2023-02-03T01:16:40;5.07;;;1.80;;
16075;SDS011;8142;48.242;11.644;2023-02-03T01:19:06;4.63;;;1.70;;
16075;SDS011;8142;48.242;11.644;2023-02-03T01:21:32;4.37;;;1.80;;
16075;SDS011;8142;48.242;11.644;2023-02-03T01:23:58;5.67;;;1.90;;
16075;SDS011;8142;48.242;11.644;2023-02-03T01:26:25;4.67;;;1.93;;
16075;SDS011;8142;48.242;11.644;2023-02-03T01:28:54;3.33;;;1.60;;
16075;SDS011;8142;48.242;11.644;2023-02-03T01:31:23;3.83;;;1.63;;
16075;SDS011;8142;48.242;11.644;2023-02-03T01:33:51;7.10;;;1.80;;
16075;SDS011;8142;48.242;11.644;2023-02-03T01:36:18;3.60;;;1.73;;
16075;SDS011;8142;48.242;11.644;2023-02-03T01:38:45;2.77;;;1.50;;
16075;SDS011;8142;48.242;11.644;2023-02-03T01:41:12;3.37;;;2.00;;
16075;SDS011;8142;48.242;11.644;2023-02-03T01:43:41;6.53;;;2.00;;
16075;SDS011;8142;48.242;11.644;2023-02-03T01:46:29;2.83;;;1.67;;
16075;SDS011;8142;48.242;11.644;2023-02-03T01:49:06;3.90;;;1.70;;
16075;SDS011;8142;48.242;11.644;2023-02-03T01:51:42;3.63;;;1.80;;
16075;SDS011;8142;48.242;11.644;2023-02-03T01:54:11;3.07;;;1.60;;
16075;SDS011;8142;48.242;11.644;2023-02-03T01:56:41;3.30;;;1.50;;
16075;SDS011;8142;48.242;11.644;2023-02-03T01:59:11;4.33;;;1.70;;
16075;SDS011;8142;48.242;11.644;2023-02-03T02:01:41;4.93;;;1.70;;
16075;SDS011;8142;48.242;11.644;2023-02-03T02:04:08;3.20;;;1.50;;
16075;SDS011;8142;48.242;11.644;2023-02-03T02:06:35;2.77;;;1.50;;
16075;SDS011;8142;48.242;11.644;2023-02-03T02:09:01;3.77;;;1.67;;
16075;SDS011;8142;48.242;11.644;2023-02-03T02:11:28;2.97;;;1.60;;
16075;SDS011;8142;48.242;11.644;2023-02-03T02:13:55;3.60;;;1.63;;
16075;SDS011;8142;48.242;11.644;2023-02-03T02:21:58;4.17;;;1.50;;
16075;SDS011;8142;48.242;11.644;2023-02-03T02:38:20;2.97;;;1.70;;
16075;SDS011;8142;48.242;11.644;2023-02-03T02:40:52;2.87;;;1.63;;
16075;SDS011;8142;48.242;11.644;2023-02-03T02:46:10;2.77;;;1.53;;
16075;SDS011;8142;48.242;11.644;2023-02-03T02:48:47;2.13;;;1.40;;
16075;SDS011;8142;48.242;11.644;2023-02-03T02:51:27;2.13;;;1.47;;
16075;SDS011;8142;48.242;11.644;2023-02-03T02:53:56;1.80;;;1.50;;
16075;SDS011;8142;48.242;11.644;2023-02-03T02:56:26;3.67;;;1.47;;
16075;SDS011;8142;48.242;11.644;2023-02-03T02:58:53;5.00;;;1.60;;
16075;SDS011;8142;48.242;11.644;2023-02-03T03:01:22;2.50;;;1.37;;
16075;SDS011;8142;48.242;11.644;2023-02-03T03:03:48;2.10;;;1.30;;
16075;SDS011;8142;48.242;11.644;2023-02-03T03:06:16;4.50;;;1.50;;
16075;SDS011;8142;48.242;11.644;2023-02-03T03:08:45;2.63;;;1.47;;
16075;SDS011;8142;48.242;11.644;2023-02-03T03:11:15;3.40;;;1.47;;
16075;SDS011;8142;48.242;11.644;2023-02-03T03:13:44;6.57;;;2.03;;
16075;SDS011;8142;48.242;11.644;2023-02-03T03:16:20;3.77;;;1.30;;
16075;SDS011;8142;48.242;11.644;2023-02-03T03:18:50;2.90;;;1.53;;
16075;SDS011;8142;48.242;11.644;2023-02-03T03:21:21;2.57;;;1.40;;
16075;SDS011;8142;48.242;11.644;2023-02-03T03:23:52;3.47;;;1.40;;
16075;SDS011;8142;48.242;11.644;2023-02-03T03:27:09;2.07;;;1.57;;
16075;SDS011;8142;48.242;11.644;2023-02-03T03:31:48;3.97;;;1.40;;
16075;SDS011;8142;48.242;11.644;2023-02-03T03:34:14;3.13;;;1.50;;
16075;SDS011;8142;48.242;11.644;2023-02-03T03:36:57;2.27;;;1.20;;
16075;SDS011;8142;48.242;11.644;2023-02-03T03:42:03;2.87;;;1.50;;
16075;SDS011;8142;48.242;11.644;2023-02-03T03:47:30;3.20;;;1.40;;
16075;SDS011;8142;48.242;11.644;2023-02-03T03:50:03;2.50;;;1.40;;
16075;SDS011;8142;48.242;11.644;2023-02-03T03:52:33;2.10;;;1.40;;
16075;SDS011;8142;48.242;11.644;2023-02-03T03:55:02;1.67;;;1.33;;
16075;SDS011;8142;48.242;11.644;2023-02-03T03:57:54;3.80;;;1.33;;
16075;SDS011;8142;48.242;11.644;2023-02-03T04:00:24;2.20;;;1.20;;
16075;SDS011;8142;48.242;11.644;2023-02-03T04:02:55;1.70;;;1.27;;
16075;SDS011;8142;48.242;11.644;2023-02-03T04:05:25;1.67;;;1.20;;
16075;SDS011;8142;48.242;11.644;2023-02-03T04:07:51;3.30;;;1.40;;
16075;SDS011;8142;48.242;11.644;2023-02-03T04:12:51;3.23;;;1.47;;
16075;SDS011;8142;48.242;11.644;2023-02-03T04:15:17;2.20;;;1.40;;
16075;SDS011;8142;48.242;11.644;2023-02-03T04:17:43;1.93;;;1.30;;
16075;SDS011;8142;48.242;11.644;2023-02-03T04:20:09;1.80;;;1.40;;
16075;SDS011;8142;48.242;11.644;2023-02-03T04:22:36;1.50;;;1.30;;
16075;SDS011;8142;48.242;11.644;2023-02-03T04:25:02;3.93;;;1.40;;
16075;SDS011;8142;48.242;11.644;2023-02-03T04:27:28;2.83;;;1.33;;
16075;SDS011;8142;48.242;11.644;2023-02-03T04:29:54;2.97;;;1.23;;
16075;SDS011;8142;48.242;11.644;2023-02-03T04:32:19;1.73;;;1.40;;
16075;SDS011;8142;48.242;11.644;2023-02-03T04:34:45;4.63;;;1.60;;
16075;SDS011;8142;48.242;11.644;2023-02-03T04:37:11;1.40;;;1.20;;
16075;SDS011;8142;48.242;11.644;2023-02-03T04:39:37;2.50;;;1.40;;
16075;SDS011;8142;48.242;11.644;2023-02-03T04:42:03;2.63;;;1.53;;
16075;SDS011;8142;48.242;11.644;2023-02-03T04:44:29;2.47;;;1.40;;
16075;SDS011;8142;48.242;11.644;2023-02-03T04:46:55;2.83;;;1.43;;
16075;SDS011;8142;48.242;11.644;2023-02-03T04:49:20;4.10;;;1.47;;
16075;SDS011;8142;48.242;11.644;2023-02-03T04:51:49;2.77;;;1.43;;
16075;SDS011;8142;48.242;11.644;2023-02-03T04:54:15;2.33;;;1.40;;
16075;SDS011;8142;48.242;11.644;2023-02-03T04:56:41;4.07;;;1.60;;
16075;SDS011;8142;48.242;11.644;2023-02-03T04:59:07;3.23;;;1.80;;
16075;SDS011;8142;48.242;11.644;2023-02-03T05:01:33;4.53;;;1.50;;
16075;SDS011;8142;48.242;11.644;2023-02-03T05:03:59;2.27;;;1.73;;
16075;SDS011;8142;48.242;11.644;2023-02-03T05:06:26;5.27;;;1.60;;
16075;SDS011;8142;48.242;11.644;2023-02-03T05:08:54;5.03;;;1.60;;
16075;SDS011;8142;48.242;11.644;2023-02-03T05:11:20;4.23;;;1.90;;
16075;SDS011;8142;48.242;11.644;2023-02-03T05:13:47;2.33;;;1.50;;
16075;SDS011;8142;48.242;11.644;2023-02-03T05:16:13;2.83;;;1.43;;
16075;SDS011;8142;48.242;11.644;2023-02-03T05:18:38;5.33;;;1.80;;
16075;SDS011;8142;48.242;11.644;2023-02-03T05:21:04;2.77;;;1.70;;
16075;SDS011;8142;48.242;11.644;2023-02-03T05:23:30;3.20;;;1.50;;
16075;SDS011;8142;48.242;11.644;2023-02-03T05:25:56;2.70;;;1.60;;
16075;SDS011;8142;48.242;11.644;2023-02-03T05:28:22;3.10;;;1.50;;
16075;SDS011;8142;48.242;11.644;2023-02-03T05:30:48;3.73;;;1.70;;
16075;SDS011;8142;48.242;11.644;2023-02-03T05:33:14;5.70;;;1.73;;
16075;SDS011;8142;48.242;11.644;2023-02-03T05:35:40;2.13;;;1.70;;
16075;SDS011;8142;48.242;11.644;2023-02-03T05:38:06;3.67;;;1.50;;
16075;SDS011;8142;48.242;11.644;2023-02-03T05:40:32;2.27;;;1.50;;
16075;SDS011;8142;48.242;11.644;2023-02-03T05:43:17;4.53;;;1.53;;
16075;SDS011;8142;48.242;11.644;2023-02-03T05:45:44;2.23;;;1.30;;
16075;SDS011;8142;48.242;11.644;2023-02-03T05:48:10;4.30;;;1.57;;
16075;SDS011;8142;48.242;11.644;2023-02-03T05:50:36;2.10;;;1.40;;
16075;SDS011;8142;48.242;11.644;2023-02-03T05:53:02;4.23;;;1.60;;
16075;SDS011;8142;48.242;11.644;2023-02-03T05:55:30;4.63;;;1.60;;
16075;SDS011;8142;48.242;11.644;2023-02-03T05:57:56;2.47;;;1.57;;
16075;SDS011;8142;48.242;11.644;2023-02-03T06:00:24;2.80;;;1.47;;
16075;SDS011;8142;48.242;11.644;2023-02-03T06:02:50;2.37;;;1.40;;
16075;SDS011;8142;48.242;11.644;2023-02-03T06:05:17;2.90;;;1.30;;
16075;SDS011;8142;48.242;11.644;2023-02-03T06:07:43;3.07;;;1.60;;
16075;SDS011;8142;48.242;11.644;2023-02-03T06:10:09;4.73;;;1.60;;
16075;SDS011;8142;48.242;11.644;2023-02-03T06:12:36;2.07;;;1.30;;
16075;SDS011;8142;48.242;11.644;2023-02-03T06:15:02;2.70;;;1.30;;
16075;SDS011;8142;48.242;11.644;2023-02-03T06:17:29;3.60;;;1.40;;
16075;SDS011;8142;48.242;11.644;2023-02-03T06:19:55;4.23;;;1.43;;
16075;SDS011;8142;48.242;11.644;2023-02-03T06:22:21;2.90;;;1.30;;
16075;SDS011;8142;48.242;11.644;2023-02-03T06:24:47;2.93;;;1.50;;
16075;SDS011;8142;48.242;11.644;2023-02-03T06:27:16;5.50;;;1.57;;
16075;SDS011;8142;48.242;11.644;2023-02-03T06:29:41;3.53;;;1.50;;
16075;SDS011;8142;48.242;11.644;2023-02-03T06:32:08;3.63;;;1.37;;
16075;SDS011;8142;48.242;11.644;2023-02-03T06:34:33;2.67;;;1.30;;
16075;SDS011;8142;48.242;11.644;2023-02-03T06:36:59;2.17;;;1.40;;
16075;SDS011;8142;48.242;11.644;2023-02-03T06:39:25;4.03;;;1.60;;
16075;SDS011;8142;48.242;11.644;2023-02-03T06:41:51;1.77;;;1.30;;
16075;SDS011;8142;48.242;11.644;2023-02-03T06:44:17;3.03;;;1.30;;
16075;SDS011;8142;48.242;11.644;2023-02-03T06:46:43;3.13;;;1.40;;
16075;SDS011;8142;48.242;11.644;2023-02-03T06:49:09;3.90;;;1.30;;
16075;SDS011;8142;48.242;11.644;2023-02-03T06:51:35;3.37;;;1.30;;
16075;SDS011;8142;48.242;11.644;2023-02-03T06:54:01;3.03;;;1.30;;
16075;SDS011;8142;48.242;11.644;2023-02-03T06:56:28;6.20;;;1.40;;
16075;SDS011;8142;48.242;11.644;2023-02-03T06:58:54;2.87;;;1.70;;
16075;SDS011;8142;48.242;11.644;2023-02-03T07:01:20;3.80;;;1.40;;
16075;SDS011;8142;48.242;11.644;2023-02-03T07:03:46;2.83;;;1.43;;
16075;SDS011;8142;48.242;11.644;2023-02-03T07:06:12;4.57;;;1.40;;
16075;SDS011;8142;48.242;11.644;2023-02-03T07:08:38;3.00;;;1.50;;
16075;SDS011;8142;48.242;11.644;2023-02-03T07:11:06;4.80;;;1.40;;
16075;SDS011;8142;48.242;11.644;2023-02-03T07:13:32;4.10;;;1.50;;
16075;SDS011;8142;48.242;11.644;2023-02-03T07:15:57;3.87;;;1.40;;
16075;SDS011;8142;48.242;11.644;2023-02-03T07:18:23;2.90;;;1.10;;
16075;SDS011;8142;48.242;11.644;2023-02-03T07:20:50;3.43;;;1.30;;
16075;SDS011;8142;48.242;11.644;2023-02-03T07:23:17;2.67;;;1.40;;
16075;SDS011;8142;48.242;11.644;2023-02-03T07:25:43;1.97;;;1.23;;
16075;SDS011;8142;48.242;11.644;2023-02-03T07:28:09;3.60;;;1.60;;
16075;SDS011;8142;48.242;11.644;2023-02-03T07:30:35;2.57;;;1.40;;
16075;SDS011;8142;48.242;11.644;2023-02-03T07:33:01;4.90;;;1.57;;
16075;SDS011;8142;48.242;11.644;2023-02-03T07:35:27;2.93;;;1.20;;
16075;SDS011;8142;48.242;11.644;2023-02-03T07:37:53;2.90;;;1.30;;
16075;SDS011;8142;48.242;11.644;2023-02-03T07:40:19;2.10;;;1.30;;
16075;SDS011;8142;48.242;11.644;2023-02-03T07:42:46;2.67;;;1.40;;
16075;SDS011;8142;48.242;11.644;2023-02-03T07:45:13;4.03;;;1.30;;
16075;SDS011;8142;48.242;11.644;2023-02-03T07:47:41;2.77;;;1.03;;
16075;SDS011;8142;48.242;11.644;2023-02-03T07:50:08;3.20;;;1.20;;
16075;SDS011;8142;48.242;11.644;2023-02-03T07:52:35;4.23;;;1.47;;
16075;SDS011;8142;48.242;11.644;2023-02-03T07:55:01;2.73;;;1.10;;
16075;SDS011;8142;48.242;11.644;2023-02-03T07:57:27;3.03;;;1.40;;
16075;SDS011;8142;48.242;11.644;2023-02-03T07:59:53;2.63;;;1.13;;
16075;SDS011;8142;48.242;11.644;2023-02-03T08:02:19;1.30;;;1.00;;
16075;SDS011;8142;48.242;11.644;2023-02-03T08:04:45;1.33;;;1.07;;
16075;SDS011;8142;48.242;11.644;2023-02-03T08:07:11;2.53;;;1.10;;
16075;SDS011;8142;48.242;11.644;2023-02-03T08:09:36;1.93;;;1.30;;
16075;SDS011;8142;48.242;11.644;2023-02-03T08:12:02;4.07;;;1.30;;
16075;SDS011;8142;48.242;11.644;2023-02-03T08:14:28;1.63;;;0.97;;
16075;SDS011;8142;48.242;11.644;2023-02-03T08:16:55;2.30;;;1.00;;
16075;SDS011;8142;48.242;11.644;2023-02-03T08:19:21;1.10;;;0.80;;
16075;SDS011;8142;48.242;11.644;2023-02-03T08:21:47;1.73;;;1.23;;
16075;SDS011;8142;48.242;11.644;2023-02-03T08:24:13;3.90;;;1.23;;
16075;SDS011;8142;48.242;11.644;2023-02-03T08:26:39;2.40;;;1.07;;
16075;SDS011;8142;48.242;11.644;2023-02-03T08:29:05;2.73;;;1.20;;
16075;SDS011;8142;48.242;11.644;2023-02-03T08:31:32;1.13;;;1.00;;
16075;SDS011;8142;48.242;11.644;2023-02-03T08:33:57;1.67;;;1.00;;
16075;SDS011;8142;48.242;11.644;2023-02-03T08:36:24;2.40;;;1.00;;
16075;SDS011;8142;48.242;11.644;2023-02-03T08:38:50;0.93;;;0.80;;
16075;SDS011;8142;48.242;11.644;2023-02-03T08:41:16;1.37;;;1.10;;
16075;SDS011;8142;48.242;11.644;2023-02-03T08:43:42;2.50;;;1.03;;
16075;SDS011;8142;48.242;11.644;2023-02-03T08:46:10;1.87;;;1.00;;
16075;SDS011;8142;48.242;11.644;2023-02-03T08:48:37;1.33;;;0.87;;
16075;SDS011;8142;48.242;11.644;2023-02-03T08:51:10;1.87;;;1.00;;
16075;SDS011;8142;48.242;11.644;2023-02-03T08:53:38;1.43;;;0.90;;
16075;SDS011;8142;48.242;11.644;2023-02-03T08:56:05;0.70;;;0.70;;
16075;SDS011;8142;48.242;11.644;2023-02-03T08:58:32;2.57;;;1.10;;
16075;SDS011;8142;48.242;11.644;2023-02-03T09:01:12;2.10;;;0.90;;
16075;SDS011;8142;48.242;11.644;2023-02-03T09:03:40;2.03;;;1.10;;
16075;SDS011;8142;48.242;11.644;2023-02-03T09:06:06;0.87;;;0.87;;
16075;SDS011;8142;48.242;11.644;2023-02-03T09:08:33;1.00;;;0.87;;
16075;SDS011;8142;48.242;11.644;2023-02-03T09:10:59;0.97;;;0.80;;
16075;SDS011;8142;48.242;11.644;2023-02-03T09:13:25;0.67;;;0.63;;
16075;SDS011;8142;48.242;11.644;2023-02-03T09:15:51;2.20;;;1.20;;
16075;SDS011;8142;48.242;11.644;2023-02-03T09:18:17;4.77;;;0.90;;
16075;SDS011;8142;48.242;11.644;2023-02-03T09:20:43;2.03;;;1.00;;
16075;SDS011;8142;48.242;11.644;2023-02-03T09:23:09;1.73;;;1.00;;
16075;SDS011;8142;48.242;11.644;2023-02-03T09:25:35;1.93;;;1.00;;
16075;SDS011;8142;48.242;11.644;2023-02-03T09:28:00;1.50;;;0.90;;
16075;SDS011;8142;48.242;11.644;2023-02-03T09:30:27;2.47;;;0.90;;
16075;SDS011;8142;48.242;11.644;2023-02-03T09:32:52;2.47;;;1.00;;
16075;SDS011;8142;48.242;11.644;2023-02-03T09:35:20;1.73;;;0.83;;
16075;SDS011;8142;48.242;11.644;2023-02-03T09:37:47;0.93;;;0.80;;
16075;SDS011;8142;48.242;11.644;2023-02-03T09:40:17;1.23;;;1.00;;
16075;SDS011;8142;48.242;11.644;2023-02-03T09:45:28;0.87;;;0.87;;
16075;SDS011;8142;48.242;11.644;2023-02-03T09:48:03;1.50;;;0.93;;
16075;SDS011;8142;48.242;11.644;2023-02-03T09:50:34;1.90;;;1.00;;
16075;SDS011;8142;48.242;11.644;2023-02-03T09:53:07;2.47;;;1.00;;
16075;SDS011;8142;48.242;11.644;2023-02-03T09:55:47;3.90;;;1.10;;
16075;SDS011;8142;48.242;11.644;2023-02-03T09:58:15;1.20;;;0.90;;
16075;SDS011;8142;48.242;11.644;2023-02-03T10:01:18;1.00;;;1.00;;
16075;SDS011;8142;48.242;11.644;2023-02-03T10:11:51;1.97;;;1.00;;
16075;SDS011;8142;48.242;11.644;2023-02-03T10:14:25;2.57;;;1.17;;
16075;SDS011;8142;48.242;11.644;2023-02-03T10:22:15;1.50;;;1.00;;
16075;SDS011;8142;48.242;11.644;2023-02-03T10:24:58;1.63;;;1.10;;
16075;SDS011;8142;48.242;11.644;2023-02-03T10:27:27;0.97;;;0.97;;
16075;SDS011;8142;48.242;11.644;2023-02-03T10:29:57;3.17;;;1.10;;
16075;SDS011;8142;48.242;11.644;2023-02-03T10:32:23;1.33;;;1.10;;
16075;SDS011;8142;48.242;11.644;2023-02-03T10:34:51;1.73;;;1.20;;
16075;SDS011;8142;48.242;11.644;2023-02-03T10:37:33;1.07;;;0.93;;
16075;SDS011;8142;48.242;11.644;2023-02-03T10:40:09;1.20;;;1.07;;
16075;SDS011;8142;48.242;11.644;2023-02-03T10:42:37;2.37;;;1.00;;
16075;SDS011;8142;48.242;11.644;2023-02-03T10:45:22;1.20;;;1.10;;
16075;SDS011;8142;48.242;11.644;2023-02-03T10:47:51;1.73;;;0.80;;
16075;SDS011;8142;48.242;11.644;2023-02-03T10:50:20;1.10;;;1.00;;
16075;SDS011;8142;48.242;11.644;2023-02-03T10:52:48;0.90;;;0.90;;
16075;SDS011;8142;48.242;11.644;2023-02-03T10:57:49;2.57;;;1.10;;
16075;SDS011;8142;48.242;11.644;2023-02-03T11:05:32;2.23;;;1.33;;
16075;SDS011;8142;48.242;11.644;2023-02-03T11:07:59;1.17;;;1.07;;
16075;SDS011;8142;48.242;11.644;2023-02-03T11:15:55;2.60;;;1.17;;
16075;SDS011;8142;48.242;11.644;2023-02-03T11:21:27;3.33;;;1.30;;
16075;SDS011;8142;48.242;11.644;2023-02-03T11:26:56;3.87;;;1.33;;
16075;SDS011;8142;48.242;11.644;2023-02-03T11:29:23;3.10;;;1.10;;
16075;SDS011;8142;48.242;11.644;2023-02-03T11:31:53;1.40;;;1.20;;
16075;SDS011;8142;48.242;11.644;2023-02-03T11:34:22;1.87;;;1.13;;
16075;SDS011;8142;48.242;11.644;2023-02-03T11:36:54;2.73;;;1.30;;
16075;SDS011;8142;48.242;11.644;2023-02-03T11:39:23;1.47;;;1.17;;
16075;SDS011;8142;48.242;11.644;2023-02-03T11:41:51;1.60;;;1.20;;
16075;SDS011;8142;48.242;11.644;2023-02-03T11:44:27;2.43;;;1.37;;
16075;SDS011;8142;48.242;11.644;2023-02-03T11:46:56;1.43;;;1.00;;
16075;SDS011;8142;48.242;11.644;2023-02-03T11:49:32;1.80;;;1.20;;
16075;SDS011;8142;48.242;11.644;2023-02-03T11:54:49;5.13;;;1.40;;
16075;SDS011;8142;48.242;11.644;2023-02-03T12:13:28;2.30;;;1.10;;
16075;SDS011;8142;48.242;11.644;2023-02-03T12:24:33;1.37;;;1.10;;
16075;SDS011;8142;48.242;11.644;2023-02-03T12:29:57;2.27;;;1.20;;
16075;SDS011;8142;48.242;11.644;2023-02-03T12:32:35;2.77;;;1.10;;
16075;SDS011;8142;48.242;11.644;2023-02-03T12:45:50;2.77;;;1.20;;
16075;SDS011;8142;48.242;11.644;2023-02-03T12:48:55;2.40;;;1.13;;
16075;SDS011;8142;48.242;11.644;2023-02-03T12:51:29;1.43;;;1.13;;
16075;SDS011;8142;48.242;11.644;2023-02-03T12:57:34;2.07;;;1.20;;
16075;SDS011;8142;48.242;11.644;2023-02-03T13:00:00;4.47;;;1.10;;
16075;SDS011;8142;48.242;11.644;2023-02-03T13:05:36;2.47;;;1.30;;
16075;SDS011;8142;48.242;11.644;2023-02-03T13:08:11;1.40;;;1.10;;
16075;SDS011;8142;48.242;11.644;2023-02-03T13:10:52;1.87;;;1.03;;
16075;SDS011;8142;48.242;11.644;2023-02-03T13:13:47;1.47;;;1.30;;
16075;SDS011;8142;48.242;11.644;2023-02-03T13:16:18;1.63;;;1.00;;
16075;SDS011;8142;48.242;11.644;2023-02-03T13:18:51;2.43;;;1.20;;
16075;SDS011;8142;48.242;11.644;2023-02-03T13:21:20;1.27;;;1.10;;
16075;SDS011;8142;48.242;11.644;2023-02-03T13:23:47;1.10;;;1.07;;
16075;SDS011;8142;48.242;11.644;2023-02-03T13:29:09;2.73;;;1.20;;
16075;SDS011;8142;48.242;11.644;2023-02-03T13:34:44;2.60;;;1.00;;
16075;SDS011;8142;48.242;11.644;2023-02-03T13:40:26;1.07;;;0.90;;
16075;SDS011;8142;48.242;11.644;2023-02-03T13:43:14;1.20;;;1.10;;
16075;SDS011;8142;48.242;11.644;2023-02-03T13:45:45;1.43;;;0.90;;
16075;SDS011;8142;48.242;11.644;2023-02-03T13:48:19;2.53;;;0.90;;
16075;SDS011;8142;48.242;11.644;2023-02-03T13:50:48;2.60;;;1.10;;
16075;SDS011;8142;48.242;11.644;2023-02-03T13:53:26;2.13;;;1.00;;
16075;SDS011;8142;48.242;11.644;2023-02-03T14:00:58;1.00;;;0.90;;
16075;SDS011;8142;48.242;11.644;2023-02-03T14:05:58;1.93;;;0.80;;
16075;SDS011;8142;48.242;11.644;2023-02-03T14:19:57;2.60;;;1.00;;
16075;SDS011;8142;48.242;11.644;2023-02-03T14:21:59;2.83;;;1.10;;
16075;SDS011;8142;48.242;11.644;2023-02-03T14:24:32;0.97;;;0.97;;
16075;SDS011;8142;48.242;11.644;2023-02-03T14:27:02;3.53;;;0.90;;
16075;SDS011;8142;48.242;11.644;2023-02-03T14:29:31;1.33;;;1.00;;
16075;SDS011;8142;48.242;11.644;2023-02-03T14:32:01;1.57;;;0.90;;
16075;SDS011;8142;48.242;11.644;2023-02-03T14:42:47;1.13;;;1.00;;
16075;SDS011;8142;48.242;11.644;2023-02-03T14:52:24;0.97;;;0.97;;
16075;SDS011;8142;48.242;11.644;2023-02-03T14:57:40;1.93;;;1.00;;
16075;SDS011;8142;48.242;11.644;2023-02-03T15:05:55;2.03;;;1.07;;
16075;SDS011;8142;48.242;11.644;2023-02-03T15:11:20;0.90;;;0.90;;
16075;SDS011;8142;48.242;11.644;2023-02-03T15:13:49;1.00;;;0.90;;
16075;SDS011;8142;48.242;11.644;2023-02-03T15:16:17;1.97;;;1.10;;
16075;SDS011;8142;48.242;11.644;2023-02-03T15:18:51;1.60;;;1.20;;
16075;SDS011;8142;48.242;11.644;2023-02-03T15:21:19;4.13;;;1.43;;
16075;SDS011;8142;48.242;11.644;2023-02-03T15:23:46;1.20;;;1.03;;
16075;SDS011;8142;48.242;11.644;2023-02-03T15:26:25;1.00;;;0.87;;
16075;SDS011;8142;48.242;11.644;2023-02-03T15:28:55;1.73;;;1.33;;
16075;SDS011;8142;48.242;11.644;2023-02-03T15:31:30;1.33;;;1.23;;
16075;SDS011;8142;48.242;11.644;2023-02-03T15:34:05;2.77;;;1.17;;
16075;SDS011;8142;48.242;11.644;2023-02-03T15:36:40;1.03;;;0.93;;
16075;SDS011;8142;48.242;11.644;2023-02-03T15:41:50;1.13;;;0.90;;
16075;SDS011;8142;48.242;11.644;2023-02-03T15:44:24;1.83;;;0.93;;
16075;SDS011;8142;48.242;11.644;2023-02-03T15:46:54;2.27;;;1.10;;
16075;SDS011;8142;48.242;11.644;2023-02-03T15:49:26;2.80;;;1.17;;
16075;SDS011;8142;48.242;11.644;2023-02-03T15:51:57;1.03;;;1.00;;
16075;SDS011;8142;48.242;11.644;2023-02-03T15:57:19;5.53;;;1.23;;
16075;SDS011;8142;48.242;11.644;2023-02-03T16:00:17;3.90;;;1.23;;
16075;SDS011;8142;48.242;11.644;2023-02-03T16:02:34;1.00;;;1.00;;
16075;SDS011;8142;48.242;11.644;2023-02-03T16:05:18;2.27;;;1.20;;
16075;SDS011;8142;48.242;11.644;2023-02-03T16:07:50;1.30;;;1.20;;
16075;SDS011;8142;48.242;11.644;2023-02-03T16:10:27;3.57;;;1.10;;
16075;SDS011;8142;48.242;11.644;2023-02-03T16:16:00;2.60;;;1.37;;
16075;SDS011;8142;48.242;11.644;2023-02-03T16:18:31;1.90;;;1.30;;
16075;SDS011;8142;48.242;11.644;2023-02-03T16:21:00;2.93;;;1.30;;
16075;SDS011;8142;48.242;11.644;2023-02-03T16:23:26;1.93;;;1.20;;
16075;SDS011;8142;48.242;11.644;2023-02-03T16:26:14;1.27;;;1.10;;
16075;SDS011;8142;48.242;11.644;2023-02-03T16:28:42;2.27;;;1.03;;
16075;SDS011;8142;48.242;11.644;2023-02-03T16:31:40;2.37;;;1.23;;
16075;SDS011;8142;48.242;11.644;2023-02-03T16:34:28;1.97;;;1.10;;
16075;SDS011;8142;48.242;11.644;2023-02-03T16:37:19;1.20;;;0.93;;
16075;SDS011;8142;48.242;11.644;2023-02-03T16:40:11;1.87;;;1.10;;
16075;SDS011;8142;48.242;11.644;2023-02-03T16:42:57;2.37;;;1.30;;
16075;SDS011;8142;48.242;11.644;2023-02-03T16:45:42;2.97;;;1.00;;
16075;SDS011;8142;48.242;11.644;2023-02-03T16:48:26;1.30;;;1.07;;
16075;SDS011;8142;48.242;11.644;2023-02-03T16:51:14;2.00;;;1.30;;
16075;SDS011;8142;48.242;11.644;2023-02-03T16:53:42;3.50;;;1.17;;
16075;SDS011;8142;48.242;11.644;2023-02-03T16:56:09;1.47;;;0.97;;
16075;SDS011;8142;48.242;11.644;2023-02-03T16:58:36;2.63;;;1.13;;
16075;SDS011;8142;48.242;11.644;2023-02-03T17:01:02;1.47;;;1.20;;
16075;SDS011;8142;48.242;11.644;2023-02-03T17:03:30;2.43;;;1.07;;
16075;SDS011;8142;48.242;11.644;2023-02-03T17:06:01;2.30;;;1.10;;
16075;SDS011;8142;48.242;11.644;2023-02-03T17:08:29;2.20;;;0.90;;
16075;SDS011;8142;48.242;11.644;2023-02-03T17:11:00;1.90;;;1.30;;
16075;SDS011;8142;48.242;11.644;2023-02-03T17:13:27;2.50;;;1.03;;
16075;SDS011;8142;48.242;11.644;2023-02-03T17:15:53;3.40;;;1.00;;
16075;SDS011;8142;48.242;11.644;2023-02-03T17:18:19;1.20;;;0.93;;
16075;SDS011;8142;48.242;11.644;2023-02-03T17:20:45;1.53;;;1.20;;
16075;SDS011;8142;48.242;11.644;2023-02-03T17:23:12;1.77;;;1.10;;
16075;SDS011;8142;48.242;11.644;2023-02-03T17:25:42;1.37;;;1.23;;
16075;SDS011;8142;48.242;11.644;2023-02-03T17:28:09;1.90;;;1.20;;
16075;SDS011;8142;48.242;11.644;2023-02-03T17:30:37;1.47;;;0.90;;
16075;SDS011;8142;48.242;11.644;2023-02-03T17:33:04;1.60;;;1.00;;
16075;SDS011;8142;48.242;11.644;2023-02-03T17:35:37;2.57;;;1.17;;
16075;SDS011;8142;48.242;11.644;2023-02-03T17:38:04;1.87;;;1.00;;
16075;SDS011;8142;48.242;11.644;2023-02-03T17:40:30;2.17;;;0.93;;
16075;SDS011;8142;48.242;11.644;2023-02-03T17:42:55;0.83;;;0.83;;
16075;SDS011;8142;48.242;11.644;2023-02-03T17:45:21;2.70;;;1.00;;
16075;SDS011;8142;48.242;11.644;2023-02-03T17:47:47;1.00;;;1.00;;
16075;SDS011;8142;48.242;11.644;2023-02-03T17:50:14;1.00;;;0.90;;
16075;SDS011;8142;48.242;11.644;2023-02-03T17:52:42;0.93;;;0.93;;
16075;SDS011;8142;48.242;11.644;2023-02-03T17:55:09;1.57;;;1.00;;
16075;SDS011;8142;48.242;11.644;2023-02-03T17:57:35;1.73;;;1.27;;
16075;SDS011;8142;48.242;11.644;2023-02-03T18:00:02;3.67;;;1.10;;